Northumberland, Pennsylvania
Current Conditions -  °F | °C
As of 7:53 PM on Friday 19 Dec 2014 (Local Time) from KSEG Reporting Station
Broken Clouds Broken Clouds  
Wind Chill: 27°   Ceiling: 4700
Heat Index: 33°   Visibility: 10mi
Dew Point: 21°   Wind: 7mph
Humidity: 61%   Direction: 330°NNW
Pressure: 30.2"   Gusts: NA
Location:  40.89°N, 76.8°W
Report Text: KSEG 200053Z AUTO 33006KT 10SM FEW038 BKN047 01/M06 A3020 RMK AO2 SLP230 T00061061
Loading
Personal Weather Stations






























Interactive Weather Map New forecast layout! Learn more

10-Day Weather Forecast

Advertisements
Track Severe Weather on mobile